CheckWX is a tool to help pilots better visualize weather data.  It is not intended as a substitute for an official pre-flight weather briefing.

15:07:45 UTC

LESA TAF
Salamanca Airport
Salamanca, Spain
TAF LESA 231100Z 2312/2412 12010KT CAVOK TX21/2315Z TNM03/2406Z TEMPO 2321/2406 VRB05KT

Mar-23@
12:00 UTC

Mar-23 @ 12:00 UTC

Mar-24@
12:00 UTC

Mar-24 @ 12:00 UTC

TAF LESA 231100Z 2312/2412 12010KT CAVOK TX21/2315Z TNM03/2406Z
Wind
  • 120° at 10 KTS
Cloud Levels
  • No significant clouds

Mar-23@
21:00 UTC

Mar-23 @ 21:00 UTC

Mar-24@
06:00 UTC

Mar-24 @ 06:00 UTC

TEMPO 2321/2406 VRB05KT

Temporary

Temporary Changes expected for less than half the time period

Wind
  • Variable at 5 KTS